sensor_id;sensor_type;location;lat;lon;timestamp;temperature;humidity
7290;DHT22;63176;52.678;13.250;2023-02-01T00:01:26;4.40;99.90
7290;DHT22;63176;52.678;13.250;2023-02-01T00:03:52;4.40;99.90
7290;DHT22;63176;52.678;13.250;2023-02-01T00:06:18;4.40;99.90
7290;DHT22;63176;52.678;13.250;2023-02-01T00:08:43;4.40;99.90
7290;DHT22;63176;52.678;13.250;2023-02-01T00:11:11;4.40;99.90
7290;DHT22;63176;52.678;13.250;2023-02-01T00:13:39;4.40;99.90
7290;DHT22;63176;52.678;13.250;2023-02-01T00:16:35;4.40;99.90
7290;DHT22;63176;52.678;13.250;2023-02-01T00:19:07;4.30;99.90
7290;DHT22;63176;52.678;13.250;2023-02-01T00:21:35;4.30;99.90
7290;DHT22;63176;52.678;13.250;2023-02-01T00:24:00;4.20;99.90
7290;DHT22;63176;52.678;13.250;2023-02-01T00:26:33;4.20;99.90
7290;DHT22;63176;52.678;13.250;2023-02-01T00:29:01;4.30;99.90
7290;DHT22;63176;52.678;13.250;2023-02-01T00:31:27;4.30;99.90
7290;DHT22;63176;52.678;13.250;2023-02-01T00:33:53;4.40;99.90
7290;DHT22;63176;52.678;13.250;2023-02-01T00:36:18;4.40;99.90
7290;DHT22;63176;52.678;13.250;2023-02-01T00:38:47;4.40;99.90
7290;DHT22;63176;52.678;13.250;2023-02-01T00:41:18;4.40;99.90
7290;DHT22;63176;52.678;13.250;2023-02-01T00:43:44;4.50;99.90
7290;DHT22;63176;52.678;13.250;2023-02-01T00:46:11;4.50;99.90
7290;DHT22;63176;52.678;13.250;2023-02-01T00:48:37;4.50;99.90
7290;DHT22;63176;52.678;13.250;2023-02-01T00:51:06;4.50;99.90
7290;DHT22;63176;52.678;13.250;2023-02-01T00:53:33;4.50;99.90
7290;DHT22;63176;52.678;13.250;2023-02-01T00:55:58;4.50;99.90
7290;DHT22;63176;52.678;13.250;2023-02-01T00:58:24;4.50;99.90
7290;DHT22;63176;52.678;13.250;2023-02-01T01:01:12;4.50;99.90
7290;DHT22;63176;52.678;13.250;2023-02-01T01:03:47;4.60;99.90
7290;DHT22;63176;52.678;13.250;2023-02-01T01:06:17;4.50;99.90
7290;DHT22;63176;52.678;13.250;2023-02-01T01:08:43;4.50;99.90
7290;DHT22;63176;52.678;13.250;2023-02-01T01:11:12;4.50;99.90
7290;DHT22;63176;52.678;13.250;2023-02-01T01:13:38;4.50;99.90
7290;DHT22;63176;52.678;13.250;2023-02-01T01:16:06;4.50;99.90
7290;DHT22;63176;52.678;13.250;2023-02-01T01:18:33;4.50;99.90
7290;DHT22;63176;52.678;13.250;2023-02-01T01:20:59;4.50;99.90
7290;DHT22;63176;52.678;13.250;2023-02-01T01:23:25;4.50;99.90
7290;DHT22;63176;52.678;13.250;2023-02-01T01:25:51;4.50;99.90
7290;DHT22;63176;52.678;13.250;2023-02-01T01:28:17;4.50;99.90
7290;DHT22;63176;52.678;13.250;2023-02-01T01:30:43;4.50;99.90
7290;DHT22;63176;52.678;13.250;2023-02-01T01:33:09;4.40;99.90
7290;DHT22;63176;52.678;13.250;2023-02-01T01:35:35;4.40;99.90
7290;DHT22;63176;52.678;13.250;2023-02-01T01:38:01;4.40;99.90
7290;DHT22;63176;52.678;13.250;2023-02-01T01:40:28;4.40;99.90
7290;DHT22;63176;52.678;13.250;2023-02-01T01:42:54;4.50;99.90
7290;DHT22;63176;52.678;13.250;2023-02-01T01:45:25;4.50;99.90
7290;DHT22;63176;52.678;13.250;2023-02-01T01:47:57;4.50;99.90
7290;DHT22;63176;52.678;13.250;2023-02-01T01:50:27;4.50;99.90
7290;DHT22;63176;52.678;13.250;2023-02-01T01:52:55;4.60;99.90
7290;DHT22;63176;52.678;13.250;2023-02-01T01:55:24;4.60;99.90
7290;DHT22;63176;52.678;13.250;2023-02-01T01:57:59;4.60;99.90
7290;DHT22;63176;52.678;13.250;2023-02-01T02:00:27;4.60;99.90
7290;DHT22;63176;52.678;13.250;2023-02-01T02:02:58;4.60;99.90
7290;DHT22;63176;52.678;13.250;2023-02-01T02:05:24;4.60;99.90
7290;DHT22;63176;52.678;13.250;2023-02-01T02:07:52;4.60;99.90
7290;DHT22;63176;52.678;13.250;2023-02-01T02:10:19;4.60;99.90
7290;DHT22;63176;52.678;13.250;2023-02-01T02:12:47;4.60;99.90
7290;DHT22;63176;52.678;13.250;2023-02-01T02:15:14;4.60;99.90
7290;DHT22;63176;52.678;13.250;2023-02-01T02:18:01;4.60;99.90
7290;DHT22;63176;52.678;13.250;2023-02-01T02:21:05;4.60;99.90
7290;DHT22;63176;52.678;13.250;2023-02-01T02:24:23;4.60;99.90
7290;DHT22;63176;52.678;13.250;2023-02-01T02:27:00;4.60;99.90
7290;DHT22;63176;52.678;13.250;2023-02-01T02:34:56;4.60;99.90
7290;DHT22;63176;52.678;13.250;2023-02-01T02:42:59;4.70;99.90
7290;DHT22;63176;52.678;13.250;2023-02-01T02:45:54;4.60;99.90
7290;DHT22;63176;52.678;13.250;2023-02-01T02:51:27;4.60;99.90
7290;DHT22;63176;52.678;13.250;2023-02-01T02:54:15;4.60;99.90
7290;DHT22;63176;52.678;13.250;2023-02-01T02:57:03;4.50;99.90
7290;DHT22;63176;52.678;13.250;2023-02-01T02:59:48;4.50;99.90
7290;DHT22;63176;52.678;13.250;2023-02-01T03:02:33;4.50;99.90
7290;DHT22;63176;52.678;13.250;2023-02-01T03:05:17;4.50;99.90
7290;DHT22;63176;52.678;13.250;2023-02-01T03:10:26;4.40;99.90
7290;DHT22;63176;52.678;13.250;2023-02-01T03:12:54;4.40;99.90
7290;DHT22;63176;52.678;13.250;2023-02-01T03:15:46;4.50;99.90
7290;DHT22;63176;52.678;13.250;2023-02-01T03:18:39;4.50;99.90
7290;DHT22;63176;52.678;13.250;2023-02-01T03:21:13;4.40;99.90
7290;DHT22;63176;52.678;13.250;2023-02-01T03:23:42;4.40;99.90
7290;DHT22;63176;52.678;13.250;2023-02-01T03:26:13;4.40;99.90
7290;DHT22;63176;52.678;13.250;2023-02-01T03:28:44;4.40;99.90
7290;DHT22;63176;52.678;13.250;2023-02-01T03:31:13;4.40;99.90
7290;DHT22;63176;52.678;13.250;2023-02-01T03:33:39;4.40;99.90
7290;DHT22;63176;52.678;13.250;2023-02-01T03:39:02;4.40;99.90
7290;DHT22;63176;52.678;13.250;2023-02-01T03:44:18;4.40;99.90
7290;DHT22;63176;52.678;13.250;2023-02-01T03:46:57;4.40;99.90
7290;DHT22;63176;52.678;13.250;2023-02-01T03:49:30;4.40;99.90
7290;DHT22;63176;52.678;13.250;2023-02-01T03:51:58;4.50;99.90
7290;DHT22;63176;52.678;13.250;2023-02-01T03:54:26;4.50;99.90
7290;DHT22;63176;52.678;13.250;2023-02-01T03:56:55;4.50;99.90
7290;DHT22;63176;52.678;13.250;2023-02-01T03:59:21;4.50;99.90
7290;DHT22;63176;52.678;13.250;2023-02-01T04:01:47;4.50;99.90
7290;DHT22;63176;52.678;13.250;2023-02-01T04:04:12;4.60;99.90
7290;DHT22;63176;52.678;13.250;2023-02-01T04:06:46;4.60;99.90
7290;DHT22;63176;52.678;13.250;2023-02-01T04:09:12;4.60;99.90
7290;DHT22;63176;52.678;13.250;2023-02-01T04:11:37;4.60;99.90
7290;DHT22;63176;52.678;13.250;2023-02-01T04:14:03;4.50;99.90
7290;DHT22;63176;52.678;13.250;2023-02-01T04:16:33;4.60;99.90
7290;DHT22;63176;52.678;13.250;2023-02-01T04:18:59;4.60;99.90
7290;DHT22;63176;52.678;13.250;2023-02-01T04:21:25;4.70;99.90
7290;DHT22;63176;52.678;13.250;2023-02-01T04:23:52;4.70;99.90
7290;DHT22;63176;52.678;13.250;2023-02-01T04:26:18;4.70;99.90
7290;DHT22;63176;52.678;13.250;2023-02-01T04:28:44;4.70;99.90
7290;DHT22;63176;52.678;13.250;2023-02-01T04:31:16;4.70;99.90
7290;DHT22;63176;52.678;13.250;2023-02-01T04:33:42;4.70;99.90
7290;DHT22;63176;52.678;13.250;2023-02-01T04:36:08;4.70;99.90
7290;DHT22;63176;52.678;13.250;2023-02-01T04:38:34;4.70;99.90
7290;DHT22;63176;52.678;13.250;2023-02-01T04:41:00;4.70;99.90
7290;DHT22;63176;52.678;13.250;2023-02-01T04:43:25;4.70;99.90
7290;DHT22;63176;52.678;13.250;2023-02-01T04:45:51;4.80;99.90
7290;DHT22;63176;52.678;13.250;2023-02-01T04:48:18;4.80;99.90
7290;DHT22;63176;52.678;13.250;2023-02-01T04:50:45;4.90;99.90
7290;DHT22;63176;52.678;13.250;2023-02-01T04:53:16;4.90;99.90
7290;DHT22;63176;52.678;13.250;2023-02-01T04:55:43;5.00;99.90
7290;DHT22;63176;52.678;13.250;2023-02-01T04:58:09;5.00;99.90
7290;DHT22;63176;52.678;13.250;2023-02-01T05:00:36;5.00;99.90
7290;DHT22;63176;52.678;13.250;2023-02-01T05:03:02;5.00;99.90
7290;DHT22;63176;52.678;13.250;2023-02-01T05:05:29;5.00;99.90
7290;DHT22;63176;52.678;13.250;2023-02-01T05:07:54;5.00;99.90
7290;DHT22;63176;52.678;13.250;2023-02-01T05:10:21;5.10;99.90
7290;DHT22;63176;52.678;13.250;2023-02-01T05:12:46;5.10;99.90
7290;DHT22;63176;52.678;13.250;2023-02-01T05:15:31;5.10;99.90
7290;DHT22;63176;52.678;13.250;2023-02-01T05:17:57;5.10;99.90
7290;DHT22;63176;52.678;13.250;2023-02-01T05:20:23;5.10;99.90
7290;DHT22;63176;52.678;13.250;2023-02-01T05:22:49;5.20;99.90
7290;DHT22;63176;52.678;13.250;2023-02-01T05:25:15;5.20;99.90
7290;DHT22;63176;52.678;13.250;2023-02-01T05:27:41;5.20;99.90
7290;DHT22;63176;52.678;13.250;2023-02-01T05:30:07;5.30;99.90
7290;DHT22;63176;52.678;13.250;2023-02-01T05:32:33;5.30;99.90
7290;DHT22;63176;52.678;13.250;2023-02-01T05:34:59;5.30;99.90
7290;DHT22;63176;52.678;13.250;2023-02-01T05:37:25;5.30;99.90
7290;DHT22;63176;52.678;13.250;2023-02-01T05:39:50;5.30;99.90
7290;DHT22;63176;52.678;13.250;2023-02-01T05:42:16;5.30;99.90
7290;DHT22;63176;52.678;13.250;2023-02-01T05:44:42;5.30;99.90
7290;DHT22;63176;52.678;13.250;2023-02-01T05:47:08;5.30;99.90
7290;DHT22;63176;52.678;13.250;2023-02-01T05:49:33;5.30;99.90
7290;DHT22;63176;52.678;13.250;2023-02-01T05:51:59;5.40;99.90
7290;DHT22;63176;52.678;13.250;2023-02-01T05:54:25;5.40;99.90
7290;DHT22;63176;52.678;13.250;2023-02-01T05:56:50;5.40;99.90
7290;DHT22;63176;52.678;13.250;2023-02-01T05:59:16;5.40;99.90
7290;DHT22;63176;52.678;13.250;2023-02-01T06:01:41;5.40;99.90
7290;DHT22;63176;52.678;13.250;2023-02-01T06:04:07;5.40;99.90
7290;DHT22;63176;52.678;13.250;2023-02-01T06:06:33;5.40;99.90
7290;DHT22;63176;52.678;13.250;2023-02-01T06:08:59;5.40;99.90
7290;DHT22;63176;52.678;13.250;2023-02-01T06:11:26;5.40;99.90
7290;DHT22;63176;52.678;13.250;2023-02-01T06:13:53;5.40;99.90
7290;DHT22;63176;52.678;13.250;2023-02-01T06:16:19;5.40;99.90
7290;DHT22;63176;52.678;13.250;2023-02-01T06:18:44;5.30;99.90
7290;DHT22;63176;52.678;13.250;2023-02-01T06:21:10;5.30;99.90
7290;DHT22;63176;52.678;13.250;2023-02-01T06:23:36;5.20;99.90
7290;DHT22;63176;52.678;13.250;2023-02-01T06:26:04;5.10;99.90
7290;DHT22;63176;52.678;13.250;2023-02-01T06:28:31;5.10;99.90
7290;DHT22;63176;52.678;13.250;2023-02-01T06:30:57;5.10;99.90
7290;DHT22;63176;52.678;13.250;2023-02-01T06:33:24;5.10;99.90
7290;DHT22;63176;52.678;13.250;2023-02-01T06:35:57;5.00;99.90
7290;DHT22;63176;52.678;13.250;2023-02-01T06:38:24;5.00;99.90
7290;DHT22;63176;52.678;13.250;2023-02-01T06:40:57;4.90;99.90
7290;DHT22;63176;52.678;13.250;2023-02-01T06:43:24;4.90;99.90
7290;DHT22;63176;52.678;13.250;2023-02-01T06:45:51;4.80;99.90
7290;DHT22;63176;52.678;13.250;2023-02-01T06:48:17;4.80;99.90
7290;DHT22;63176;52.678;13.250;2023-02-01T06:50:43;4.80;99.90
7290;DHT22;63176;52.678;13.250;2023-02-01T06:53:09;4.80;99.90
7290;DHT22;63176;52.678;13.250;2023-02-01T06:55:34;4.80;99.90
7290;DHT22;63176;52.678;13.250;2023-02-01T06:58:00;4.80;99.90
7290;DHT22;63176;52.678;13.250;2023-02-01T07:00:28;4.80;99.90
7290;DHT22;63176;52.678;13.250;2023-02-01T07:02:53;4.80;99.90
7290;DHT22;63176;52.678;13.250;2023-02-01T07:05:20;4.80;99.90
7290;DHT22;63176;52.678;13.250;2023-02-01T07:07:46;4.80;99.90
7290;DHT22;63176;52.678;13.250;2023-02-01T07:10:12;4.80;99.90
7290;DHT22;63176;52.678;13.250;2023-02-01T07:12:38;4.80;99.90
7290;DHT22;63176;52.678;13.250;2023-02-01T07:15:04;4.90;99.90
7290;DHT22;63176;52.678;13.250;2023-02-01T07:17:30;4.90;99.90
7290;DHT22;63176;52.678;13.250;2023-02-01T07:19:56;4.80;99.90
7290;DHT22;63176;52.678;13.250;2023-02-01T07:22:24;4.80;99.90
7290;DHT22;63176;52.678;13.250;2023-02-01T07:24:49;4.80;99.90
7290;DHT22;63176;52.678;13.250;2023-02-01T07:27:15;4.80;99.90
7290;DHT22;63176;52.678;13.250;2023-02-01T07:29:41;4.80;99.90
7290;DHT22;63176;52.678;13.250;2023-02-01T07:32:06;4.70;99.90
7290;DHT22;63176;52.678;13.250;2023-02-01T07:34:32;4.80;99.90
7290;DHT22;63176;52.678;13.250;2023-02-01T07:36:59;4.80;99.90
7290;DHT22;63176;52.678;13.250;2023-02-01T07:39:24;4.80;99.90
7290;DHT22;63176;52.678;13.250;2023-02-01T07:41:53;4.80;99.90
7290;DHT22;63176;52.678;13.250;2023-02-01T07:44:19;4.80;99.90
7290;DHT22;63176;52.678;13.250;2023-02-01T07:46:48;4.80;99.90
7290;DHT22;63176;52.678;13.250;2023-02-01T07:49:14;4.80;99.90
7290;DHT22;63176;52.678;13.250;2023-02-01T07:51:39;4.80;99.90
7290;DHT22;63176;52.678;13.250;2023-02-01T07:54:05;4.80;99.90
7290;DHT22;63176;52.678;13.250;2023-02-01T07:56:31;4.70;99.90
7290;DHT22;63176;52.678;13.250;2023-02-01T07:58:58;4.60;99.90
7290;DHT22;63176;52.678;13.250;2023-02-01T08:01:26;4.60;99.90
7290;DHT22;63176;52.678;13.250;2023-02-01T08:04:02;4.60;99.90
7290;DHT22;63176;52.678;13.250;2023-02-01T08:06:30;4.50;99.90
7290;DHT22;63176;52.678;13.250;2023-02-01T08:08:57;4.50;99.90
7290;DHT22;63176;52.678;13.250;2023-02-01T08:11:23;4.40;99.90
7290;DHT22;63176;52.678;13.250;2023-02-01T08:13:49;4.40;99.90
7290;DHT22;63176;52.678;13.250;2023-02-01T08:16:16;4.30;99.90
7290;DHT22;63176;52.678;13.250;2023-02-01T08:18:43;4.30;99.90
7290;DHT22;63176;52.678;13.250;2023-02-01T08:21:15;4.20;99.90
7290;DHT22;63176;52.678;13.250;2023-02-01T08:23:42;4.20;99.90
7290;DHT22;63176;52.678;13.250;2023-02-01T08:26:13;4.20;99.90
7290;DHT22;63176;52.678;13.250;2023-02-01T08:28:44;4.10;99.90
7290;DHT22;63176;52.678;13.250;2023-02-01T08:31:15;4.10;99.90
7290;DHT22;63176;52.678;13.250;2023-02-01T08:33:42;4.10;99.90
7290;DHT22;63176;52.678;13.250;2023-02-01T08:36:09;4.10;99.90
7290;DHT22;63176;52.678;13.250;2023-02-01T08:38:36;4.00;99.90
7290;DHT22;63176;52.678;13.250;2023-02-01T08:41:08;4.00;99.90
7290;DHT22;63176;52.678;13.250;2023-02-01T08:43:34;4.10;99.90
7290;DHT22;63176;52.678;13.250;2023-02-01T08:45:59;4.10;99.90
7290;DHT22;63176;52.678;13.250;2023-02-01T08:48:25;4.10;99.90
7290;DHT22;63176;52.678;13.250;2023-02-01T08:50:51;4.10;99.90
7290;DHT22;63176;52.678;13.250;2023-02-01T08:53:16;4.10;99.90
7290;DHT22;63176;52.678;13.250;2023-02-01T08:55:42;4.10;99.90
7290;DHT22;63176;52.678;13.250;2023-02-01T08:58:08;4.10;99.90
7290;DHT22;63176;52.678;13.250;2023-02-01T09:00:33;4.20;99.90
7290;DHT22;63176;52.678;13.250;2023-02-01T09:02:59;4.20;99.90
7290;DHT22;63176;52.678;13.250;2023-02-01T09:05:25;4.20;99.90
7290;DHT22;63176;52.678;13.250;2023-02-01T09:07:52;4.20;99.90
7290;DHT22;63176;52.678;13.250;2023-02-01T09:10:18;4.20;99.90
7290;DHT22;63176;52.678;13.250;2023-02-01T09:12:44;4.30;99.90
7290;DHT22;63176;52.678;13.250;2023-02-01T09:15:10;4.30;99.90
7290;DHT22;63176;52.678;13.250;2023-02-01T09:17:35;4.40;99.90
7290;DHT22;63176;52.678;13.250;2023-02-01T09:20:02;4.40;99.90
7290;DHT22;63176;52.678;13.250;2023-02-01T09:22:27;4.40;99.90
7290;DHT22;63176;52.678;13.250;2023-02-01T09:24:53;4.50;99.90
7290;DHT22;63176;52.678;13.250;2023-02-01T09:27:19;4.50;99.90
7290;DHT22;63176;52.678;13.250;2023-02-01T09:29:45;4.50;99.90
7290;DHT22;63176;52.678;13.250;2023-02-01T09:32:14;4.60;99.90
7290;DHT22;63176;52.678;13.250;2023-02-01T09:34:40;4.60;99.90
7290;DHT22;63176;52.678;13.250;2023-02-01T09:37:06;4.60;99.90
7290;DHT22;63176;52.678;13.250;2023-02-01T09:39:32;4.70;99.90
7290;DHT22;63176;52.678;13.250;2023-02-01T09:48:19;4.80;99.90
7290;DHT22;63176;52.678;13.250;2023-02-01T09:50:55;4.80;99.90
7290;DHT22;63176;52.678;13.250;2023-02-01T09:53:36;4.80;99.90
7290;DHT22;63176;52.678;13.250;2023-02-01T09:56:20;4.80;99.90
7290;DHT22;63176;52.678;13.250;2023-02-01T09:59:23;4.80;99.90
7290;DHT22;63176;52.678;13.250;2023-02-01T10:01:51;4.80;99.90
7290;DHT22;63176;52.678;13.250;2023-02-01T10:04:18;4.90;99.90
7290;DHT22;63176;52.678;13.250;2023-02-01T10:18:07;4.70;99.90
7290;DHT22;63176;52.678;13.250;2023-02-01T10:26:19;5.00;99.90
7290;DHT22;63176;52.678;13.250;2023-02-01T10:28:52;4.80;99.90
7290;DHT22;63176;52.678;13.250;2023-02-01T10:31:22;4.90;99.90
7290;DHT22;63176;52.678;13.250;2023-02-01T10:33:57;4.90;99.90
7290;DHT22;63176;52.678;13.250;2023-02-01T10:36:34;5.00;99.90
7290;DHT22;63176;52.678;13.250;2023-02-01T10:39:02;5.10;99.90
7290;DHT22;63176;52.678;13.250;2023-02-01T10:41:37;5.20;99.90
7290;DHT22;63176;52.678;13.250;2023-02-01T10:44:10;5.20;99.90
7290;DHT22;63176;52.678;13.250;2023-02-01T10:46:37;5.30;99.90
7290;DHT22;63176;52.678;13.250;2023-02-01T10:49:04;5.30;99.90
7290;DHT22;63176;52.678;13.250;2023-02-01T10:51:46;5.20;99.90
7290;DHT22;63176;52.678;13.250;2023-02-01T10:54:21;5.20;99.90
7290;DHT22;63176;52.678;13.250;2023-02-01T10:56:48;5.10;99.90
7290;DHT22;63176;52.678;13.250;2023-02-01T10:59:24;5.10;99.90
7290;DHT22;63176;52.678;13.250;2023-02-01T11:01:59;5.20;99.90
7290;DHT22;63176;52.678;13.250;2023-02-01T11:04:26;5.40;99.90
7290;DHT22;63176;52.678;13.250;2023-02-01T11:09:41;5.80;99.90
7290;DHT22;63176;52.678;13.250;2023-02-01T11:12:29;5.80;99.90
7290;DHT22;63176;52.678;13.250;2023-02-01T11:15:18;5.70;99.90
7290;DHT22;63176;52.678;13.250;2023-02-01T11:17:47;5.80;99.90
7290;DHT22;63176;52.678;13.250;2023-02-01T11:22:56;5.80;99.90
7290;DHT22;63176;52.678;13.250;2023-02-01T11:25:23;5.90;99.90
7290;DHT22;63176;52.678;13.250;2023-02-01T11:27:50;5.90;99.90
7290;DHT22;63176;52.678;13.250;2023-02-01T11:30:36;5.90;99.90
7290;DHT22;63176;52.678;13.250;2023-02-01T11:33:05;5.90;99.90
7290;DHT22;63176;52.678;13.250;2023-02-01T11:35:31;5.90;99.90
7290;DHT22;63176;52.678;13.250;2023-02-01T11:37:59;6.00;99.90
7290;DHT22;63176;52.678;13.250;2023-02-01T11:40:43;6.10;99.90
7290;DHT22;63176;52.678;13.250;2023-02-01T11:43:26;6.20;99.90
7290;DHT22;63176;52.678;13.250;2023-02-01T11:46:03;6.30;99.90
7290;DHT22;63176;52.678;13.250;2023-02-01T11:48:31;6.30;99.90
7290;DHT22;63176;52.678;13.250;2023-02-01T11:54:19;6.40;99.90
7290;DHT22;63176;52.678;13.250;2023-02-01T11:57:09;6.30;99.90
7290;DHT22;63176;52.678;13.250;2023-02-01T12:05:59;6.60;99.90
7290;DHT22;63176;52.678;13.250;2023-02-01T12:19:30;6.70;99.90
7290;DHT22;63176;52.678;13.250;2023-02-01T12:33:23;6.40;99.90
7290;DHT22;63176;52.678;13.250;2023-02-01T12:38:51;6.30;99.90
7290;DHT22;63176;52.678;13.250;2023-02-01T12:41:47;6.20;99.90
7290;DHT22;63176;52.678;13.250;2023-02-01T12:44:30;6.10;99.90
7290;DHT22;63176;52.678;13.250;2023-02-01T12:47:05;6.00;99.90
7290;DHT22;63176;52.678;13.250;2023-02-01T12:49:53;5.90;99.90
7290;DHT22;63176;52.678;13.250;2023-02-01T12:52:37;5.50;99.90
7290;DHT22;63176;52.678;13.250;2023-02-01T12:55:15;5.10;99.90
7290;DHT22;63176;52.678;13.250;2023-02-01T12:57:45;4.60;99.90
7290;DHT22;63176;52.678;13.250;2023-02-01T13:06:50;3.70;99.90
7290;DHT22;63176;52.678;13.250;2023-02-01T13:11:16;3.50;99.90
7290;DHT22;63176;52.678;13.250;2023-02-01T13:13:59;3.60;99.90
7290;DHT22;63176;52.678;13.250;2023-02-01T13:16:33;3.60;99.90
7290;DHT22;63176;52.678;13.250;2023-02-01T13:21:57;3.70;99.90
7290;DHT22;63176;52.678;13.250;2023-02-01T13:24:36;3.70;99.90
7290;DHT22;63176;52.678;13.250;2023-02-01T13:27:03;3.70;99.90
7290;DHT22;63176;52.678;13.250;2023-02-01T13:29:29;3.70;99.90
7290;DHT22;63176;52.678;13.250;2023-02-01T13:34:51;3.80;99.90
7290;DHT22;63176;52.678;13.250;2023-02-01T13:40:44;3.90;99.90
7290;DHT22;63176;52.678;13.250;2023-02-01T13:43:19;4.00;99.90
7290;DHT22;63176;52.678;13.250;2023-02-01T13:45:50;4.10;99.90
7290;DHT22;63176;52.678;13.250;2023-02-01T13:48:28;4.30;99.90
7290;DHT22;63176;52.678;13.250;2023-02-01T13:50:57;4.40;99.90
7290;DHT22;63176;52.678;13.250;2023-02-01T13:53:32;4.50;99.90
7290;DHT22;63176;52.678;13.250;2023-02-01T13:56:09;4.60;99.90
7290;DHT22;63176;52.678;13.250;2023-02-01T13:58:38;4.80;99.90
7290;DHT22;63176;52.678;13.250;2023-02-01T14:03:52;5.10;99.90
7290;DHT22;63176;52.678;13.250;2023-02-01T14:09:19;5.30;99.90
7290;DHT22;63176;52.678;13.250;2023-02-01T14:16:43;5.40;99.90
7290;DHT22;63176;52.678;13.250;2023-02-01T14:19:41;5.40;99.90
7290;DHT22;63176;52.678;13.250;2023-02-01T14:24:56;5.30;99.90
7290;DHT22;63176;52.678;13.250;2023-02-01T14:27:35;5.30;99.90
7290;DHT22;63176;52.678;13.250;2023-02-01T14:30:06;5.30;99.90
7290;DHT22;63176;52.678;13.250;2023-02-01T14:32:40;5.30;99.90
7290;DHT22;63176;52.678;13.250;2023-02-01T14:35:20;5.30;99.90
7290;DHT22;63176;52.678;13.250;2023-02-01T14:37:51;5.20;99.90
7290;DHT22;63176;52.678;13.250;2023-02-01T14:40:26;5.30;99.90
7290;DHT22;63176;52.678;13.250;2023-02-01T14:42:53;5.20;99.90
7290;DHT22;63176;52.678;13.250;2023-02-01T14:47:46;5.30;99.90
7290;DHT22;63176;52.678;13.250;2023-02-01T14:55:45;5.30;99.90
7290;DHT22;63176;52.678;13.250;2023-02-01T15:00:54;5.30;99.90
7290;DHT22;63176;52.678;13.250;2023-02-01T15:06:32;5.40;99.90
7290;DHT22;63176;52.678;13.250;2023-02-01T15:11:27;5.40;99.90
7290;DHT22;63176;52.678;13.250;2023-02-01T15:13:53;5.40;99.90
7290;DHT22;63176;52.678;13.250;2023-02-01T15:16:23;5.40;99.90
7290;DHT22;63176;52.678;13.250;2023-02-01T15:18:49;5.30;99.90
7290;DHT22;63176;52.678;13.250;2023-02-01T15:23:43;5.20;99.90
7290;DHT22;63176;52.678;13.250;2023-02-01T15:26:11;5.20;99.90
7290;DHT22;63176;52.678;13.250;2023-02-01T15:28:49;5.20;99.90
7290;DHT22;63176;52.678;13.250;2023-02-01T15:31:15;5.10;99.90
7290;DHT22;63176;52.678;13.250;2023-02-01T15:33:56;5.00;99.90
7290;DHT22;63176;52.678;13.250;2023-02-01T15:36:22;5.00;99.90
7290;DHT22;63176;52.678;13.250;2023-02-01T15:42:27;4.90;99.90
7290;DHT22;63176;52.678;13.250;2023-02-01T15:44:38;4.80;99.90
7290;DHT22;63176;52.678;13.250;2023-02-01T15:47:16;4.70;99.90
7290;DHT22;63176;52.678;13.250;2023-02-01T15:49:45;4.60;99.90
7290;DHT22;63176;52.678;13.250;2023-02-01T15:52:36;4.60;99.90
7290;DHT22;63176;52.678;13.250;2023-02-01T15:57:46;4.30;99.90
7290;DHT22;63176;52.678;13.250;2023-02-01T16:00:21;4.30;99.90
7290;DHT22;63176;52.678;13.250;2023-02-01T16:02:58;4.20;99.90
7290;DHT22;63176;52.678;13.250;2023-02-01T16:08:01;4.00;99.90
7290;DHT22;63176;52.678;13.250;2023-02-01T16:10:29;4.00;99.90
7290;DHT22;63176;52.678;13.250;2023-02-01T16:12:55;3.90;99.90
7290;DHT22;63176;52.678;13.250;2023-02-01T16:15:26;3.80;99.90
7290;DHT22;63176;52.678;13.250;2023-02-01T16:17:51;3.80;99.90
7290;DHT22;63176;52.678;13.250;2023-02-01T16:20:17;3.80;99.90
7290;DHT22;63176;52.678;13.250;2023-02-01T16:22:43;3.70;99.90
7290;DHT22;63176;52.678;13.250;2023-02-01T16:25:09;3.70;99.90
7290;DHT22;63176;52.678;13.250;2023-02-01T16:27:35;3.60;99.90
7290;DHT22;63176;52.678;13.250;2023-02-01T16:30:00;3.50;99.90
7290;DHT22;63176;52.678;13.250;2023-02-01T16:32:26;3.50;99.90
7290;DHT22;63176;52.678;13.250;2023-02-01T16:34:52;3.50;99.90
7290;DHT22;63176;52.678;13.250;2023-02-01T16:37:24;3.50;99.90
7290;DHT22;63176;52.678;13.250;2023-02-01T16:39:51;3.50;99.90
7290;DHT22;63176;52.678;13.250;2023-02-01T16:42:17;3.50;99.90
7290;DHT22;63176;52.678;13.250;2023-02-01T16:44:43;3.50;99.90
7290;DHT22;63176;52.678;13.250;2023-02-01T16:47:19;3.50;99.90
7290;DHT22;63176;52.678;13.250;2023-02-01T16:49:46;3.50;99.90
7290;DHT22;63176;52.678;13.250;2023-02-01T16:52:21;3.50;99.90
7290;DHT22;63176;52.678;13.250;2023-02-01T16:54:47;3.50;99.90
7290;DHT22;63176;52.678;13.250;2023-02-01T16:57:14;3.50;99.90
7290;DHT22;63176;52.678;13.250;2023-02-01T16:59:41;3.50;99.90
7290;DHT22;63176;52.678;13.250;2023-02-01T17:02:15;3.50;99.90
7290;DHT22;63176;52.678;13.250;2023-02-01T17:04:42;3.50;99.90
7290;DHT22;63176;52.678;13.250;2023-02-01T17:07:18;3.50;99.90
7290;DHT22;63176;52.678;13.250;2023-02-01T17:09:45;3.60;99.90
7290;DHT22;63176;52.678;13.250;2023-02-01T17:12:28;3.60;99.90
7290;DHT22;63176;52.678;13.250;2023-02-01T17:14:55;3.60;99.90
7290;DHT22;63176;52.678;13.250;2023-02-01T17:17:21;3.70;99.90
7290;DHT22;63176;52.678;13.250;2023-02-01T17:19:50;3.70;99.90
7290;DHT22;63176;52.678;13.250;2023-02-01T17:22:22;3.70;99.90
7290;DHT22;63176;52.678;13.250;2023-02-01T17:24:48;3.70;99.90
7290;DHT22;63176;52.678;13.250;2023-02-01T17:27:16;3.70;99.90
7290;DHT22;63176;52.678;13.250;2023-02-01T17:29:41;3.70;99.90
7290;DHT22;63176;52.678;13.250;2023-02-01T17:32:16;3.80;99.90
7290;DHT22;63176;52.678;13.250;2023-02-01T17:34:42;3.80;99.90
7290;DHT22;63176;52.678;13.250;2023-02-01T17:37:27;3.90;99.90
7290;DHT22;63176;52.678;13.250;2023-02-01T17:39:53;3.90;99.90
7290;DHT22;63176;52.678;13.250;2023-02-01T17:42:27;3.90;99.90
7290;DHT22;63176;52.678;13.250;2023-02-01T17:45:02;3.90;99.90
7290;DHT22;63176;52.678;13.250;2023-02-01T17:47:36;3.90;99.90
7290;DHT22;63176;52.678;13.250;2023-02-01T17:50:03;4.00;99.90
7290;DHT22;63176;52.678;13.250;2023-02-01T17:52:29;4.00;99.90
7290;DHT22;63176;52.678;13.250;2023-02-01T17:54:54;4.10;99.90
7290;DHT22;63176;52.678;13.250;2023-02-01T17:57:20;4.10;99.90
7290;DHT22;63176;52.678;13.250;2023-02-01T17:59:46;4.10;99.90
7290;DHT22;63176;52.678;13.250;2023-02-01T18:02:21;4.10;99.90
7290;DHT22;63176;52.678;13.250;2023-02-01T18:04:47;4.10;99.90
7290;DHT22;63176;52.678;13.250;2023-02-01T18:07:14;4.10;99.90
7290;DHT22;63176;52.678;13.250;2023-02-01T18:09:39;4.10;99.90
7290;DHT22;63176;52.678;13.250;2023-02-01T18:12:12;4.20;99.90
7290;DHT22;63176;52.678;13.250;2023-02-01T18:14:39;4.10;99.90
7290;DHT22;63176;52.678;13.250;2023-02-01T18:17:05;4.20;99.90
7290;DHT22;63176;52.678;13.250;2023-02-01T18:19:30;4.20;99.90
7290;DHT22;63176;52.678;13.250;2023-02-01T18:21:57;4.10;99.90
7290;DHT22;63176;52.678;13.250;2023-02-01T18:24:23;4.20;99.90
7290;DHT22;63176;52.678;13.250;2023-02-01T18:26:49;4.20;99.90